sensor_id;sensor_type;location;lat;lon;timestamp;temperature;humidity
55331;DHT22;58851;42.984;20.336;2022-12-18T00:02:16;153.60;2252.80
55331;DHT22;58851;42.984;20.336;2022-12-18T00:04:42;153.70;2252.80
55331;DHT22;58851;42.984;20.336;2022-12-18T00:07:08;153.80;2252.80
55331;DHT22;58851;42.984;20.336;2022-12-18T00:09:34;153.90;2073.60
55331;DHT22;58851;42.984;20.336;2022-12-18T00:11:59;153.90;1664.00
55331;DHT22;58851;42.984;20.336;2022-12-18T00:14:25;153.80;1868.80
55331;DHT22;58851;42.984;20.336;2022-12-18T00:16:51;153.90;1203.20
55331;DHT22;58851;42.984;20.336;2022-12-18T00:19:17;153.90;1331.20
55331;DHT22;58851;42.984;20.336;2022-12-18T00:21:44;153.90;1280.00
55331;DHT22;58851;42.984;20.336;2022-12-18T00:24:11;153.90;1049.60
55331;DHT22;58851;42.984;20.336;2022-12-18T00:26:38;153.90;819.20
55331;DHT22;58851;42.984;20.336;2022-12-18T00:29:07;154.00;691.20
55331;DHT22;58851;42.984;20.336;2022-12-18T00:31:34;154.00;716.80
55331;DHT22;58851;42.984;20.336;2022-12-18T00:34:00;153.90;742.40
55331;DHT22;58851;42.984;20.336;2022-12-18T00:36:29;153.90;486.40
55331;DHT22;58851;42.984;20.336;2022-12-18T00:38:56;153.80;332.80
55331;DHT22;58851;42.984;20.336;2022-12-18T00:41:23;153.70;537.60
55331;DHT22;58851;42.984;20.336;2022-12-18T00:44:09;153.80;128.00
55331;DHT22;58851;42.984;20.336;2022-12-18T00:46:35;153.80;128.00
55331;DHT22;58851;42.984;20.336;2022-12-18T00:49:02;153.80;128.00
55331;DHT22;58851;42.984;20.336;2022-12-18T00:51:28;153.90;6502.40
55331;DHT22;58851;42.984;20.336;2022-12-18T00:53:54;154.00;6502.40
55331;DHT22;58851;42.984;20.336;2022-12-18T00:56:19;154.10;6502.40
55331;DHT22;58851;42.984;20.336;2022-12-18T00:58:45;154.10;6502.40
55331;DHT22;58851;42.984;20.336;2022-12-18T01:01:11;154.00;6502.40
55331;DHT22;58851;42.984;20.336;2022-12-18T01:03:37;154.00;6502.40
55331;DHT22;58851;42.984;20.336;2022-12-18T01:06:10;154.10;6502.40
55331;DHT22;58851;42.984;20.336;2022-12-18T01:08:37;154.10;6502.40
55331;DHT22;58851;42.984;20.336;2022-12-18T01:11:09;154.00;6502.40
55331;DHT22;58851;42.984;20.336;2022-12-18T01:13:35;153.70;6502.40
55331;DHT22;58851;42.984;20.336;2022-12-18T01:16:01;128.90;281.60
55331;DHT22;58851;42.984;20.336;2022-12-18T01:18:27;128.80;870.40
55331;DHT22;58851;42.984;20.336;2022-12-18T01:20:52;128.90;844.80
55331;DHT22;58851;42.984;20.336;2022-12-18T01:23:18;128.70;1126.40
55331;DHT22;58851;42.984;20.336;2022-12-18T01:25:44;128.60;1152.00
55331;DHT22;58851;42.984;20.336;2022-12-18T01:28:10;128.60;1433.60
55331;DHT22;58851;42.984;20.336;2022-12-18T01:30:36;128.50;1331.20
55331;DHT22;58851;42.984;20.336;2022-12-18T01:33:04;128.70;1177.60
55331;DHT22;58851;42.984;20.336;2022-12-18T01:35:30;128.50;1203.20
55331;DHT22;58851;42.984;20.336;2022-12-18T01:37:56;128.60;921.60
55331;DHT22;58851;42.984;20.336;2022-12-18T01:40:23;128.80;716.80
55331;DHT22;58851;42.984;20.336;2022-12-18T01:42:52;128.90;179.20
55331;DHT22;58851;42.984;20.336;2022-12-18T01:48:02;128.90;409.60
55331;DHT22;58851;42.984;20.336;2022-12-18T01:50:36;128.80;6502.40
55331;DHT22;58851;42.984;20.336;2022-12-18T01:53:04;128.80;128.00
55331;DHT22;58851;42.984;20.336;2022-12-18T01:55:35;128.80;6502.40
55331;DHT22;58851;42.984;20.336;2022-12-18T01:58:01;128.60;128.00
55331;DHT22;58851;42.984;20.336;2022-12-18T02:00:28;128.70;128.00
55331;DHT22;58851;42.984;20.336;2022-12-18T02:02:54;128.60;6502.40
55331;DHT22;58851;42.984;20.336;2022-12-18T02:19:05;128.30;537.60
55331;DHT22;58851;42.984;20.336;2022-12-18T02:21:45;128.10;435.20
55331;DHT22;58851;42.984;20.336;2022-12-18T02:24:21;128.10;1152.00
55331;DHT22;58851;42.984;20.336;2022-12-18T02:27:03;128.10;2252.80
55331;DHT22;58851;42.984;20.336;2022-12-18T02:29:39;128.10;2252.80
55331;DHT22;58851;42.984;20.336;2022-12-18T02:32:12;128.20;1894.40
55331;DHT22;58851;42.984;20.336;2022-12-18T02:34:40;128.20;1843.20
55331;DHT22;58851;42.984;20.336;2022-12-18T02:37:11;128.20;2150.40
55331;DHT22;58851;42.984;20.336;2022-12-18T02:39:39;128.30;1638.40
55331;DHT22;58851;42.984;20.336;2022-12-18T02:42:06;128.30;1945.60
55331;DHT22;58851;42.984;20.336;2022-12-18T02:44:42;128.40;1203.20
55331;DHT22;58851;42.984;20.336;2022-12-18T02:47:13;128.20;563.20
55331;DHT22;58851;42.984;20.336;2022-12-18T02:50:41;128.10;1331.20
55331;DHT22;58851;42.984;20.336;2022-12-18T02:56:07;128.20;1254.40
55331;DHT22;58851;42.984;20.336;2022-12-18T02:58:56;128.10;1049.60
55331;DHT22;58851;42.984;20.336;2022-12-18T03:07:07;128.10;1177.60
55331;DHT22;58851;42.984;20.336;2022-12-18T03:09:40;128.00;1382.40
55331;DHT22;58851;42.984;20.336;2022-12-18T03:12:28;128.20;947.20
55331;DHT22;58851;42.984;20.336;2022-12-18T03:14:57;128.20;1484.80
55331;DHT22;58851;42.984;20.336;2022-12-18T03:17:27;128.20;921.60
55331;DHT22;58851;42.984;20.336;2022-12-18T03:19:56;128.10;998.40
55331;DHT22;58851;42.984;20.336;2022-12-18T03:22:24;128.00;1305.60
55331;DHT22;58851;42.984;20.336;2022-12-18T03:24:54;128.00;819.20
55331;DHT22;58851;42.984;20.336;2022-12-18T03:27:23;128.10;1126.40
55331;DHT22;58851;42.984;20.336;2022-12-18T03:30:04;128.10;128.00
55331;DHT22;58851;42.984;20.336;2022-12-18T03:33:02;128.10;435.20
55331;DHT22;58851;42.984;20.336;2022-12-18T03:35:31;128.00;588.80
55331;DHT22;58851;42.984;20.336;2022-12-18T03:37:58;128.00;665.60
55331;DHT22;58851;42.984;20.336;2022-12-18T03:40:29;128.00;640.00
55331;DHT22;58851;42.984;20.336;2022-12-18T03:45:54;128.10;6502.40
55331;DHT22;58851;42.984;20.336;2022-12-18T03:48:29;128.10;6502.40
55331;DHT22;58851;42.984;20.336;2022-12-18T03:51:01;128.00;6502.40
55331;DHT22;58851;42.984;20.336;2022-12-18T03:53:36;103.30;153.60
55331;DHT22;58851;42.984;20.336;2022-12-18T03:56:04;128.00;6502.40
55331;DHT22;58851;42.984;20.336;2022-12-18T03:58:32;128.00;6502.40
55331;DHT22;58851;42.984;20.336;2022-12-18T04:01:02;128.00;6502.40
55331;DHT22;58851;42.984;20.336;2022-12-18T04:03:30;128.10;6502.40
55331;DHT22;58851;42.984;20.336;2022-12-18T04:05:59;128.00;6502.40
55331;DHT22;58851;42.984;20.336;2022-12-18T04:08:26;128.00;6502.40
55331;DHT22;58851;42.984;20.336;2022-12-18T04:10:53;128.00;6502.40
55331;DHT22;58851;42.984;20.336;2022-12-18T04:13:33;103.30;6476.80
55331;DHT22;58851;42.984;20.336;2022-12-18T04:16:00;128.00;6502.40
55331;DHT22;58851;42.984;20.336;2022-12-18T04:18:26;128.00;6502.40
55331;DHT22;58851;42.984;20.336;2022-12-18T04:20:52;128.00;6502.40
55331;DHT22;58851;42.984;20.336;2022-12-18T04:23:18;128.10;6502.40
55331;DHT22;58851;42.984;20.336;2022-12-18T04:25:44;128.00;6502.40
55331;DHT22;58851;42.984;20.336;2022-12-18T04:28:10;128.00;6502.40
55331;DHT22;58851;42.984;20.336;2022-12-18T04:30:36;128.00;6502.40
55331;DHT22;58851;42.984;20.336;2022-12-18T04:33:02;128.00;6502.40
55331;DHT22;58851;42.984;20.336;2022-12-18T04:35:28;128.00;6502.40
55331;DHT22;58851;42.984;20.336;2022-12-18T04:37:54;103.30;6476.80
55331;DHT22;58851;42.984;20.336;2022-12-18T04:40:19;128.00;6502.40
55331;DHT22;58851;42.984;20.336;2022-12-18T04:42:45;103.20;6476.80
55331;DHT22;58851;42.984;20.336;2022-12-18T04:45:11;103.20;6476.80
55331;DHT22;58851;42.984;20.336;2022-12-18T04:47:37;103.20;6476.80
55331;DHT22;58851;42.984;20.336;2022-12-18T04:50:03;103.30;6476.80
55331;DHT22;58851;42.984;20.336;2022-12-18T04:52:32;128.00;6502.40
55331;DHT22;58851;42.984;20.336;2022-12-18T04:54:57;128.00;6502.40
55331;DHT22;58851;42.984;20.336;2022-12-18T04:57:23;103.30;6476.80
55331;DHT22;58851;42.984;20.336;2022-12-18T04:59:49;128.00;6502.40
55331;DHT22;58851;42.984;20.336;2022-12-18T05:02:15;103.30;6476.80
55331;DHT22;58851;42.984;20.336;2022-12-18T05:04:40;128.00;6502.40
55331;DHT22;58851;42.984;20.336;2022-12-18T05:07:06;128.00;6502.40
55331;DHT22;58851;42.984;20.336;2022-12-18T05:09:32;103.30;6476.80
55331;DHT22;58851;42.984;20.336;2022-12-18T05:11:58;128.10;6502.40
55331;DHT22;58851;42.984;20.336;2022-12-18T05:14:23;128.10;6502.40
55331;DHT22;58851;42.984;20.336;2022-12-18T05:16:49;128.20;6502.40
55331;DHT22;58851;42.984;20.336;2022-12-18T05:19:15;128.20;6502.40
55331;DHT22;58851;42.984;20.336;2022-12-18T05:21:41;128.00;6502.40
55331;DHT22;58851;42.984;20.336;2022-12-18T05:24:07;128.00;6502.40
55331;DHT22;58851;42.984;20.336;2022-12-18T05:26:33;128.10;6502.40
55331;DHT22;58851;42.984;20.336;2022-12-18T05:28:58;128.20;6502.40
55331;DHT22;58851;42.984;20.336;2022-12-18T05:31:24;128.20;6502.40
55331;DHT22;58851;42.984;20.336;2022-12-18T05:33:50;128.30;6502.40
55331;DHT22;58851;42.984;20.336;2022-12-18T05:36:16;128.20;6502.40
55331;DHT22;58851;42.984;20.336;2022-12-18T05:38:42;128.30;6502.40
55331;DHT22;58851;42.984;20.336;2022-12-18T05:41:08;128.40;6502.40
55331;DHT22;58851;42.984;20.336;2022-12-18T05:43:38;128.30;6502.40
55331;DHT22;58851;42.984;20.336;2022-12-18T05:46:05;128.30;6502.40
55331;DHT22;58851;42.984;20.336;2022-12-18T05:48:32;128.40;6502.40
55331;DHT22;58851;42.984;20.336;2022-12-18T05:51:08;128.40;6502.40
55331;DHT22;58851;42.984;20.336;2022-12-18T05:53:34;128.30;6502.40
55331;DHT22;58851;42.984;20.336;2022-12-18T05:56:03;128.30;6502.40
55331;DHT22;58851;42.984;20.336;2022-12-18T05:58:29;128.40;6502.40
55331;DHT22;58851;42.984;20.336;2022-12-18T06:00:55;128.40;6502.40
55331;DHT22;58851;42.984;20.336;2022-12-18T06:03:21;128.30;6502.40
55331;DHT22;58851;42.984;20.336;2022-12-18T06:05:47;128.40;6502.40
55331;DHT22;58851;42.984;20.336;2022-12-18T06:08:13;128.40;6502.40
55331;DHT22;58851;42.984;20.336;2022-12-18T06:10:40;128.50;6502.40
55331;DHT22;58851;42.984;20.336;2022-12-18T06:13:06;128.50;6502.40
55331;DHT22;58851;42.984;20.336;2022-12-18T06:15:32;128.40;6502.40
55331;DHT22;58851;42.984;20.336;2022-12-18T06:18:00;128.50;6502.40
55331;DHT22;58851;42.984;20.336;2022-12-18T06:20:25;128.50;6502.40
55331;DHT22;58851;42.984;20.336;2022-12-18T06:22:51;128.50;6502.40
55331;DHT22;58851;42.984;20.336;2022-12-18T06:25:17;128.30;6502.40
55331;DHT22;58851;42.984;20.336;2022-12-18T06:27:43;128.10;6502.40
55331;DHT22;58851;42.984;20.336;2022-12-18T06:30:10;128.20;6502.40
55331;DHT22;58851;42.984;20.336;2022-12-18T06:32:36;128.20;6502.40
55331;DHT22;58851;42.984;20.336;2022-12-18T06:35:02;128.30;6502.40
55331;DHT22;58851;42.984;20.336;2022-12-18T06:37:27;128.40;6502.40
55331;DHT22;58851;42.984;20.336;2022-12-18T06:39:53;128.40;6502.40
55331;DHT22;58851;42.984;20.336;2022-12-18T06:42:24;128.40;6502.40
55331;DHT22;58851;42.984;20.336;2022-12-18T06:44:50;128.50;6502.40
55331;DHT22;58851;42.984;20.336;2022-12-18T06:47:22;128.60;6502.40
55331;DHT22;58851;42.984;20.336;2022-12-18T06:49:57;128.70;6502.40
55331;DHT22;58851;42.984;20.336;2022-12-18T06:52:23;128.60;6502.40
55331;DHT22;58851;42.984;20.336;2022-12-18T06:54:48;128.60;6502.40
55331;DHT22;58851;42.984;20.336;2022-12-18T06:57:14;128.70;6502.40
55331;DHT22;58851;42.984;20.336;2022-12-18T06:59:40;128.80;6502.40
55331;DHT22;58851;42.984;20.336;2022-12-18T07:02:06;128.80;6502.40
55331;DHT22;58851;42.984;20.336;2022-12-18T07:04:32;128.90;6502.40
55331;DHT22;58851;42.984;20.336;2022-12-18T07:06:57;153.60;6502.40
55331;DHT22;58851;42.984;20.336;2022-12-18T07:09:24;128.80;6502.40
55331;DHT22;58851;42.984;20.336;2022-12-18T07:12:11;128.80;6502.40
55331;DHT22;58851;42.984;20.336;2022-12-18T07:14:37;128.70;6502.40
55331;DHT22;58851;42.984;20.336;2022-12-18T07:17:03;128.70;6502.40
55331;DHT22;58851;42.984;20.336;2022-12-18T07:19:29;128.60;6502.40
55331;DHT22;58851;42.984;20.336;2022-12-18T07:21:55;128.70;6502.40
55331;DHT22;58851;42.984;20.336;2022-12-18T07:24:21;128.80;6502.40
55331;DHT22;58851;42.984;20.336;2022-12-18T07:26:47;128.70;6502.40
55331;DHT22;58851;42.984;20.336;2022-12-18T07:29:13;128.80;6502.40
55331;DHT22;58851;42.984;20.336;2022-12-18T07:31:38;128.80;6502.40
55331;DHT22;58851;42.984;20.336;2022-12-18T07:34:10;128.80;6502.40
55331;DHT22;58851;42.984;20.336;2022-12-18T07:36:36;128.90;6502.40
55331;DHT22;58851;42.984;20.336;2022-12-18T07:39:01;128.90;6502.40
55331;DHT22;58851;42.984;20.336;2022-12-18T07:41:27;153.60;6502.40
55331;DHT22;58851;42.984;20.336;2022-12-18T07:43:53;153.60;6502.40
55331;DHT22;58851;42.984;20.336;2022-12-18T07:46:19;153.70;6502.40
55331;DHT22;58851;42.984;20.336;2022-12-18T07:48:45;153.80;537.60
55331;DHT22;58851;42.984;20.336;2022-12-18T07:51:14;153.80;128.00
55331;DHT22;58851;42.984;20.336;2022-12-18T07:53:40;153.90;6502.40
55331;DHT22;58851;42.984;20.336;2022-12-18T07:56:09;154.00;6502.40
55331;DHT22;58851;42.984;20.336;2022-12-18T07:58:36;153.90;6502.40
55331;DHT22;58851;42.984;20.336;2022-12-18T08:01:09;153.90;6502.40
55331;DHT22;58851;42.984;20.336;2022-12-18T08:03:36;154.10;6502.40
55331;DHT22;58851;42.984;20.336;2022-12-18T08:06:04;154.20;6502.40
55331;DHT22;58851;42.984;20.336;2022-12-18T08:08:30;154.20;6502.40
55331;DHT22;58851;42.984;20.336;2022-12-18T08:10:57;153.80;6502.40
55331;DHT22;58851;42.984;20.336;2022-12-18T08:13:23;128.90;6502.40
55331;DHT22;58851;42.984;20.336;2022-12-18T08:16:15;153.70;6502.40
55331;DHT22;58851;42.984;20.336;2022-12-18T08:18:41;153.90;6502.40
55331;DHT22;58851;42.984;20.336;2022-12-18T08:21:28;154.00;6502.40
55331;DHT22;58851;42.984;20.336;2022-12-18T08:23:56;154.00;6502.40
55331;DHT22;58851;42.984;20.336;2022-12-18T08:26:23;154.10;6502.40
55331;DHT22;58851;42.984;20.336;2022-12-18T08:28:51;154.10;128.00
55331;DHT22;58851;42.984;20.336;2022-12-18T08:31:17;154.00;6528.00
55331;DHT22;58851;42.984;20.336;2022-12-18T08:33:43;154.00;204.80
55331;DHT22;58851;42.984;20.336;2022-12-18T08:36:10;154.00;6502.40
55331;DHT22;58851;42.984;20.336;2022-12-18T08:38:36;154.00;128.00
55331;DHT22;58851;42.984;20.336;2022-12-18T08:41:04;154.10;6502.40
55331;DHT22;58851;42.984;20.336;2022-12-18T08:43:30;153.90;6502.40
55331;DHT22;58851;42.984;20.336;2022-12-18T08:46:18;154.00;128.00
55331;DHT22;58851;42.984;20.336;2022-12-18T08:48:44;153.80;6502.40
55331;DHT22;58851;42.984;20.336;2022-12-18T08:51:10;153.80;6502.40
55331;DHT22;58851;42.984;20.336;2022-12-18T08:53:36;153.80;6502.40
55331;DHT22;58851;42.984;20.336;2022-12-18T08:56:03;153.80;6502.40
55331;DHT22;58851;42.984;20.336;2022-12-18T08:58:29;153.90;6502.40
55331;DHT22;58851;42.984;20.336;2022-12-18T09:01:03;153.80;6502.40
55331;DHT22;58851;42.984;20.336;2022-12-18T09:03:29;153.70;6502.40
55331;DHT22;58851;42.984;20.336;2022-12-18T09:05:55;153.60;6502.40
55331;DHT22;58851;42.984;20.336;2022-12-18T09:08:20;153.70;332.80
55331;DHT22;58851;42.984;20.336;2022-12-18T09:10:48;153.60;6528.00
55331;DHT22;58851;42.984;20.336;2022-12-18T09:13:15;153.60;128.00
55331;DHT22;58851;42.984;20.336;2022-12-18T09:15:46;128.70;6502.40
55331;DHT22;58851;42.984;20.336;2022-12-18T09:18:13;128.70;6502.40
55331;DHT22;58851;42.984;20.336;2022-12-18T09:20:39;128.40;6502.40
55331;DHT22;58851;42.984;20.336;2022-12-18T09:23:05;128.50;6502.40
55331;DHT22;58851;42.984;20.336;2022-12-18T09:25:32;128.40;6502.40
55331;DHT22;58851;42.984;20.336;2022-12-18T09:28:03;128.50;6502.40
55331;DHT22;58851;42.984;20.336;2022-12-18T09:30:29;128.50;6502.40
55331;DHT22;58851;42.984;20.336;2022-12-18T09:32:55;128.60;6502.40
55331;DHT22;58851;42.984;20.336;2022-12-18T09:35:21;128.70;6502.40
55331;DHT22;58851;42.984;20.336;2022-12-18T09:37:47;128.80;6502.40
55331;DHT22;58851;42.984;20.336;2022-12-18T09:40:16;128.70;6502.40
55331;DHT22;58851;42.984;20.336;2022-12-18T09:42:46;128.60;6502.40
55331;DHT22;58851;42.984;20.336;2022-12-18T09:45:15;128.60;6502.40
55331;DHT22;58851;42.984;20.336;2022-12-18T09:47:42;128.70;6502.40
55331;DHT22;58851;42.984;20.336;2022-12-18T09:50:37;128.80;6502.40
55331;DHT22;58851;42.984;20.336;2022-12-18T09:53:09;128.90;6502.40
55331;DHT22;58851;42.984;20.336;2022-12-18T09:55:41;128.90;6502.40
55331;DHT22;58851;42.984;20.336;2022-12-18T09:58:27;128.70;486.40
55331;DHT22;58851;42.984;20.336;2022-12-18T10:00:54;128.80;460.80
55331;DHT22;58851;42.984;20.336;2022-12-18T10:03:21;128.50;486.40
55331;DHT22;58851;42.984;20.336;2022-12-18T10:19:51;128.60;6502.40
55331;DHT22;58851;42.984;20.336;2022-12-18T10:25:09;128.80;6502.40
55331;DHT22;58851;42.984;20.336;2022-12-18T10:27:39;128.90;6502.40
55331;DHT22;58851;42.984;20.336;2022-12-18T10:30:25;153.60;537.60
55331;DHT22;58851;42.984;20.336;2022-12-18T10:32:51;153.70;6502.40
55331;DHT22;58851;42.984;20.336;2022-12-18T10:35:20;153.60;6502.40
55331;DHT22;58851;42.984;20.336;2022-12-18T10:40:32;153.70;6502.40
55331;DHT22;58851;42.984;20.336;2022-12-18T10:43:11;153.80;6502.40
55331;DHT22;58851;42.984;20.336;2022-12-18T10:45:38;153.80;6502.40
55331;DHT22;58851;42.984;20.336;2022-12-18T10:48:08;153.80;6502.40
55331;DHT22;58851;42.984;20.336;2022-12-18T10:50:49;153.90;6502.40
55331;DHT22;58851;42.984;20.336;2022-12-18T10:53:28;154.10;6502.40
55331;DHT22;58851;42.984;20.336;2022-12-18T10:56:00;154.10;6502.40
55331;DHT22;58851;42.984;20.336;2022-12-18T10:58:30;154.00;6502.40
55331;DHT22;58851;42.984;20.336;2022-12-18T11:01:16;154.00;6502.40
55331;DHT22;58851;42.984;20.336;2022-12-18T11:03:44;154.10;6502.40
55331;DHT22;58851;42.984;20.336;2022-12-18T11:06:19;154.10;6502.40
55331;DHT22;58851;42.984;20.336;2022-12-18T11:11:28;154.30;6502.40
55331;DHT22;58851;42.984;20.336;2022-12-18T11:14:05;154.30;6502.40
55331;DHT22;58851;42.984;20.336;2022-12-18T11:16:44;154.40;6502.40
55331;DHT22;58851;42.984;20.336;2022-12-18T11:21:52;153.80;6502.40
55331;DHT22;58851;42.984;20.336;2022-12-18T11:24:31;153.80;6502.40
55331;DHT22;58851;42.984;20.336;2022-12-18T11:27:03;153.80;6502.40
55331;DHT22;58851;42.984;20.336;2022-12-18T11:29:36;154.10;6502.40
55331;DHT22;58851;42.984;20.336;2022-12-18T11:32:30;154.20;6502.40
55331;DHT22;58851;42.984;20.336;2022-12-18T11:38:12;154.10;6502.40
55331;DHT22;58851;42.984;20.336;2022-12-18T11:40:43;154.20;6502.40
55331;DHT22;58851;42.984;20.336;2022-12-18T11:43:25;154.20;6502.40
55331;DHT22;58851;42.984;20.336;2022-12-18T11:46:01;154.30;6502.40
55331;DHT22;58851;42.984;20.336;2022-12-18T11:48:34;154.40;6502.40
55331;DHT22;58851;42.984;20.336;2022-12-18T11:51:05;154.50;6502.40
55331;DHT22;58851;42.984;20.336;2022-12-18T11:53:35;154.40;6502.40
55331;DHT22;58851;42.984;20.336;2022-12-18T12:17:52;179.30;6502.40
55331;DHT22;58851;42.984;20.336;2022-12-18T12:20:39;179.40;6502.40
55331;DHT22;58851;42.984;20.336;2022-12-18T12:26:10;179.40;6502.40
55331;DHT22;58851;42.984;20.336;2022-12-18T12:28:52;179.40;6502.40
55331;DHT22;58851;42.984;20.336;2022-12-18T12:39:31;179.30;6502.40
55331;DHT22;58851;42.984;20.336;2022-12-18T12:41:58;179.30;6502.40
55331;DHT22;58851;42.984;20.336;2022-12-18T12:44:46;179.40;6502.40
55331;DHT22;58851;42.984;20.336;2022-12-18T12:47:18;179.40;6502.40
55331;DHT22;58851;42.984;20.336;2022-12-18T12:49:45;179.40;6502.40
55331;DHT22;58851;42.984;20.336;2022-12-18T12:52:35;179.40;6502.40
55331;DHT22;58851;42.984;20.336;2022-12-18T12:55:06;179.20;6502.40
55331;DHT22;58851;42.984;20.336;2022-12-18T12:57:37;154.40;6502.40
55331;DHT22;58851;42.984;20.336;2022-12-18T13:00:16;154.10;6502.40
55331;DHT22;58851;42.984;20.336;2022-12-18T13:05:52;154.30;6502.40
55331;DHT22;58851;42.984;20.336;2022-12-18T13:08:31;154.40;6502.40
55331;DHT22;58851;42.984;20.336;2022-12-18T13:10:58;154.20;6502.40
55331;DHT22;58851;42.984;20.336;2022-12-18T13:13:51;154.20;6502.40
55331;DHT22;58851;42.984;20.336;2022-12-18T13:16:23;154.30;6502.40
55331;DHT22;58851;42.984;20.336;2022-12-18T13:18:57;154.30;6502.40
55331;DHT22;58851;42.984;20.336;2022-12-18T13:21:33;154.30;6502.40
55331;DHT22;58851;42.984;20.336;2022-12-18T13:24:27;154.20;6502.40
55331;DHT22;58851;42.984;20.336;2022-12-18T13:26:53;154.10;6502.40
55331;DHT22;58851;42.984;20.336;2022-12-18T13:32:20;154.10;6502.40
55331;DHT22;58851;42.984;20.336;2022-12-18T13:34:46;154.10;6502.40
55331;DHT22;58851;42.984;20.336;2022-12-18T13:39:57;154.10;6502.40
55331;DHT22;58851;42.984;20.336;2022-12-18T13:45:42;154.10;6502.40
55331;DHT22;58851;42.984;20.336;2022-12-18T13:48:37;154.10;6502.40
55331;DHT22;58851;42.984;20.336;2022-12-18T13:51:06;154.00;6502.40
55331;DHT22;58851;42.984;20.336;2022-12-18T13:53:43;153.90;6502.40
55331;DHT22;58851;42.984;20.336;2022-12-18T13:56:21;154.10;6502.40
55331;DHT22;58851;42.984;20.336;2022-12-18T13:59:24;154.10;6502.40
55331;DHT22;58851;42.984;20.336;2022-12-18T14:01:58;154.10;6502.40
55331;DHT22;58851;42.984;20.336;2022-12-18T14:04:32;154.00;6502.40
55331;DHT22;58851;42.984;20.336;2022-12-18T14:07:17;154.10;6502.40
55331;DHT22;58851;42.984;20.336;2022-12-18T14:09:52;154.10;6502.40
55331;DHT22;58851;42.984;20.336;2022-12-18T14:12:22;154.10;6502.40
55331;DHT22;58851;42.984;20.336;2022-12-18T14:17:56;154.10;6502.40
55331;DHT22;58851;42.984;20.336;2022-12-18T14:20:24;154.10;6502.40
55331;DHT22;58851;42.984;20.336;2022-12-18T14:22:50;154.10;6502.40
55331;DHT22;58851;42.984;20.336;2022-12-18T14:25:22;153.90;6502.40
55331;DHT22;58851;42.984;20.336;2022-12-18T14:27:53;153.70;6502.40
55331;DHT22;58851;42.984;20.336;2022-12-18T14:30:32;153.70;6502.40
55331;DHT22;58851;42.984;20.336;2022-12-18T14:33:16;128.90;128.00
55331;DHT22;58851;42.984;20.336;2022-12-18T14:36:03;128.70;6502.40
55331;DHT22;58851;42.984;20.336;2022-12-18T14:41:15;128.40;6502.40
55331;DHT22;58851;42.984;20.336;2022-12-18T14:43:43;128.30;6502.40
55331;DHT22;58851;42.984;20.336;2022-12-18T14:46:38;128.40;6502.40
55331;DHT22;58851;42.984;20.336;2022-12-18T14:49:04;128.50;6502.40
55331;DHT22;58851;42.984;20.336;2022-12-18T14:51:33;128.50;6502.40
55331;DHT22;58851;42.984;20.336;2022-12-18T14:54:04;128.50;6502.40
55331;DHT22;58851;42.984;20.336;2022-12-18T14:56:46;128.50;6502.40
55331;DHT22;58851;42.984;20.336;2022-12-18T14:59:23;128.60;6502.40
55331;DHT22;58851;42.984;20.336;2022-12-18T15:01:56;128.50;6502.40
55331;DHT22;58851;42.984;20.336;2022-12-18T15:07:14;128.40;6502.40
55331;DHT22;58851;42.984;20.336;2022-12-18T15:20:40;128.40;6502.40
55331;DHT22;58851;42.984;20.336;2022-12-18T15:26:04;128.50;6502.40
55331;DHT22;58851;42.984;20.336;2022-12-18T15:28:54;128.50;6502.40
55331;DHT22;58851;42.984;20.336;2022-12-18T15:31:34;128.50;307.20
55331;DHT22;58851;42.984;20.336;2022-12-18T15:34:19;128.50;6502.40
55331;DHT22;58851;42.984;20.336;2022-12-18T15:36:46;128.40;384.00
55331;DHT22;58851;42.984;20.336;2022-12-18T15:39:12;128.30;128.00
55331;DHT22;58851;42.984;20.336;2022-12-18T15:41:39;128.00;460.80
55331;DHT22;58851;42.984;20.336;2022-12-18T15:44:37;128.10;6502.40
55331;DHT22;58851;42.984;20.336;2022-12-18T15:47:03;128.20;6502.40
55331;DHT22;58851;42.984;20.336;2022-12-18T15:49:28;128.20;6502.40
55331;DHT22;58851;42.984;20.336;2022-12-18T15:51:57;128.10;6502.40
55331;DHT22;58851;42.984;20.336;2022-12-18T15:54:23;128.00;6502.40
55331;DHT22;58851;42.984;20.336;2022-12-18T15:57:12;128.10;6502.40
55331;DHT22;58851;42.984;20.336;2022-12-18T15:59:51;128.10;6502.40
55331;DHT22;58851;42.984;20.336;2022-12-18T16:02:19;128.10;6502.40
55331;DHT22;58851;42.984;20.336;2022-12-18T16:04:45;128.10;332.80
55331;DHT22;58851;42.984;20.336;2022-12-18T16:07:13;128.00;512.00
55331;DHT22;58851;42.984;20.336;2022-12-18T16:09:40;103.30;6476.80
55331;DHT22;58851;42.984;20.336;2022-12-18T16:12:21;103.20;6476.80
55331;DHT22;58851;42.984;20.336;2022-12-18T16:14:48;103.30;6476.80
55331;DHT22;58851;42.984;20.336;2022-12-18T16:17:14;128.00;6502.40
55331;DHT22;58851;42.984;20.336;2022-12-18T16:19:43;103.20;486.40
55331;DHT22;58851;42.984;20.336;2022-12-18T16:22:21;103.20;6476.80
55331;DHT22;58851;42.984;20.336;2022-12-18T16:24:48;103.20;6476.80
55331;DHT22;58851;42.984;20.336;2022-12-18T16:27:14;103.30;6476.80
55331;DHT22;58851;42.984;20.336;2022-12-18T16:29:40;128.00;6502.40
55331;DHT22;58851;42.984;20.336;2022-12-18T16:32:06;103.20;6476.80
55331;DHT22;58851;42.984;20.336;2022-12-18T16:34:34;128.00;6502.40
55331;DHT22;58851;42.984;20.336;2022-12-18T16:37:01;128.10;460.80
55331;DHT22;58851;42.984;20.336;2022-12-18T16:39:28;128.20;6502.40
55331;DHT22;58851;42.984;20.336;2022-12-18T16:41:55;128.10;6502.40
55331;DHT22;58851;42.984;20.336;2022-12-18T16:44:21;128.20;6502.40
55331;DHT22;58851;42.984;20.336;2022-12-18T16:46:47;128.20;6502.40
55331;DHT22;58851;42.984;20.336;2022-12-18T16:49:15;128.00;6502.40
55331;DHT22;58851;42.984;20.336;2022-12-18T16:51:41;128.00;128.00
55331;DHT22;58851;42.984;20.336;2022-12-18T16:54:07;128.10;128.00
55331;DHT22;58851;42.984;20.336;2022-12-18T16:56:33;128.10;307.20
55331;DHT22;58851;42.984;20.336;2022-12-18T16:59:00;128.10;179.20
55331;DHT22;58851;42.984;20.336;2022-12-18T17:01:28;128.10;6502.40